createdAt,value
2022-11-21T00:00:00.476Z,11.25
2022-11-21T00:02:30.902Z,11.65
2022-11-21T00:05:01.250Z,11.90
2022-11-21T00:07:31.626Z,10.73
2022-11-21T00:10:01.941Z,10.52
2022-11-21T00:12:32.233Z,10.70
2022-11-21T00:15:03.006Z,11.80
2022-11-21T00:17:33.293Z,12.80
2022-11-21T00:20:03.600Z,12.00
2022-11-21T00:22:34.808Z,11.97
2022-11-21T00:25:05.253Z,11.55
2022-11-21T00:27:35.523Z,12.25
2022-11-21T00:30:06.724Z,12.13
2022-11-21T00:32:37.043Z,11.93
2022-11-21T00:35:08.399Z,13.05
2022-11-21T00:37:39.045Z,13.15
2022-11-21T00:40:09.944Z,11.33
2022-11-21T00:42:41.015Z,11.93
2022-11-21T00:45:11.755Z,12.40
2022-11-21T00:47:42.157Z,11.48
2022-11-21T00:50:13.210Z,11.88
2022-11-21T00:52:43.625Z,11.52
2022-11-21T00:55:13.938Z,12.25
2022-11-21T00:57:44.391Z,13.65
2022-11-21T01:00:15.347Z,12.43
2022-11-21T01:02:46.156Z,11.38
2022-11-21T01:05:16.611Z,13.60
2022-11-21T01:07:47.150Z,13.03
2022-11-21T01:10:17.756Z,13.02
2022-11-21T01:12:48.274Z,12.52
2022-11-21T01:15:18.895Z,12.38
2022-11-21T01:17:49.415Z,12.20
2022-11-21T01:20:19.762Z,12.40
2022-11-21T01:22:50.011Z,11.85
2022-11-21T01:25:20.440Z,11.77
2022-11-21T01:27:50.710Z,11.82
2022-11-21T01:30:21.105Z,12.23
2022-11-21T01:32:52.419Z,12.02
2022-11-21T01:37:52.508Z,11.32
2022-11-21T01:40:24.598Z,11.82
2022-11-21T01:43:05.678Z,11.27
2022-11-21T01:45:59.046Z,11.30
2022-11-21T01:49:13.808Z,11.25
2022-11-21T01:52:02.854Z,10.52
2022-11-21T01:55:02.610Z,11.65
2022-11-21T01:57:42.336Z,10.73
2022-11-21T02:00:23.807Z,11.60
2022-11-21T02:02:58.680Z,11.40
2022-11-21T02:05:33.864Z,10.48
2022-11-21T02:08:17.772Z,9.90
2022-11-21T02:10:59.463Z,10.20
2022-11-21T02:13:30.362Z,10.57
2022-11-21T02:16:01.120Z,10.30
2022-11-21T02:18:31.473Z,10.00
2022-11-21T02:21:28.282Z,9.52
2022-11-21T02:24:32.816Z,9.68
2022-11-21T02:27:04.305Z,10.23
2022-11-21T02:29:35.247Z,9.70
2022-11-21T02:32:09.345Z,10.68
2022-11-21T02:34:39.685Z,10.48
2022-11-21T02:37:12.233Z,11.27
2022-11-21T02:39:43.249Z,10.63
2022-11-21T02:42:25.249Z,11.20
2022-11-21T02:45:21.360Z,10.18
2022-11-21T02:48:00.672Z,10.57
2022-11-21T02:50:36.659Z,9.70
2022-11-21T02:53:10.522Z,9.80
2022-11-21T02:55:41.254Z,10.02
2022-11-21T02:58:11.826Z,10.50
2022-11-21T03:00:44.081Z,9.35
2022-11-21T03:03:14.742Z,9.93
2022-11-21T03:05:45.716Z,9.93
2022-11-21T03:08:17.016Z,90.10
2022-11-21T03:10:47.337Z,60.47
2022-11-21T03:13:17.950Z,9.40
2022-11-21T03:15:48.096Z,9.20
2022-11-21T03:18:18.630Z,9.67
2022-11-21T03:20:48.966Z,8.65
2022-11-21T03:23:19.489Z,9.20
2022-11-21T03:25:49.801Z,9.23
2022-11-21T03:28:20.101Z,8.65
2022-11-21T03:30:50.494Z,11.57
2022-11-21T03:33:20.784Z,13.48
2022-11-21T03:35:51.245Z,7.85
2022-11-21T03:38:22.111Z,8.13
2022-11-21T03:40:52.436Z,7.55
2022-11-21T03:43:22.639Z,8.10
2022-11-21T03:45:53.054Z,8.30
2022-11-21T03:48:23.415Z,7.93
2022-11-21T03:50:53.771Z,8.23
2022-11-21T03:53:24.139Z,7.68
2022-11-21T03:55:54.455Z,6.25
2022-11-21T03:58:24.737Z,7.45
2022-11-21T04:00:55.123Z,11.60
2022-11-21T04:03:25.498Z,159.50
2022-11-21T04:05:55.831Z,31.45
2022-11-21T04:08:26.377Z,17.05
2022-11-21T04:10:57.686Z,32.53
2022-11-21T04:15:58.150Z,21.85
2022-11-21T04:18:28.449Z,6.38
2022-11-21T04:21:03.123Z,8.25
2022-11-21T04:23:33.452Z,7.65
2022-11-21T04:26:04.112Z,7.00
2022-11-21T04:28:34.606Z,6.68
2022-11-21T04:31:10.442Z,7.45
2022-11-21T04:33:42.326Z,7.50
2022-11-21T04:38:42.459Z,7.03
2022-11-21T04:41:12.602Z,7.18
2022-11-21T04:43:43.311Z,7.82
2022-11-21T04:46:13.831Z,88.45
2022-11-21T04:48:44.161Z,7.50
2022-11-21T04:51:14.421Z,6.88
2022-11-21T04:53:44.770Z,6.85
2022-11-21T04:56:19.894Z,7.63
2022-11-21T04:58:50.212Z,7.60
2022-11-21T05:01:20.695Z,7.75
2022-11-21T05:03:51.050Z,7.20
2022-11-21T05:06:21.447Z,7.03
2022-11-21T05:08:54.111Z,7.65
2022-11-21T05:11:42.930Z,7.85
2022-11-21T05:14:14.309Z,7.35
2022-11-21T05:16:44.582Z,79.18
2022-11-21T05:19:14.945Z,7.18
2022-11-21T05:21:45.297Z,6.85
2022-11-21T05:24:15.589Z,11.40
2022-11-21T05:26:45.891Z,8.48
2022-11-21T05:29:16.355Z,6.88
2022-11-21T05:31:46.621Z,8.10
2022-11-21T05:34:17.138Z,7.55
2022-11-21T05:36:47.421Z,7.07
2022-11-21T05:39:18.207Z,6.53
2022-11-21T05:41:48.505Z,6.35
2022-11-21T05:44:18.868Z,6.13
2022-11-21T05:46:49.477Z,6.38
2022-11-21T05:49:19.785Z,6.70
2022-11-21T05:51:50.132Z,6.57
2022-11-21T05:54:20.423Z,6.10
2022-11-21T05:56:50.718Z,6.90
2022-11-21T05:59:21.096Z,9.75
2022-11-21T06:02:10.035Z,8.07
2022-11-21T06:04:40.329Z,30.45
2022-11-21T06:07:10.755Z,7.72
2022-11-21T06:09:41.086Z,7.22
2022-11-21T06:12:11.864Z,7.55
2022-11-21T06:14:42.149Z,7.85
2022-11-21T06:17:12.523Z,7.13
2022-11-21T06:19:42.899Z,7.28
2022-11-21T06:22:13.224Z,7.17
2022-11-21T06:24:43.333Z,6.95
2022-11-21T06:27:13.477Z,7.55
2022-11-21T06:29:43.561Z,7.30
2022-11-21T06:32:13.925Z,7.15
2022-11-21T06:34:44.248Z,14.53
2022-11-21T06:37:14.543Z,6.50
2022-11-21T06:39:44.938Z,6.60
2022-11-21T06:42:15.299Z,6.72
2022-11-21T06:44:45.585Z,6.93
2022-11-21T06:47:16.097Z,6.70
2022-11-21T06:49:46.295Z,28.70
2022-11-21T06:52:16.605Z,6.68
2022-11-21T06:54:46.930Z,6.68
2022-11-21T06:57:17.228Z,6.68
2022-11-21T06:59:47.416Z,7.07
2022-11-21T07:02:18.766Z,6.68
2022-11-21T07:04:49.331Z,7.63
2022-11-21T07:07:19.793Z,6.33
2022-11-21T07:09:50.660Z,6.53
2022-11-21T07:12:44.122Z,6.57
2022-11-21T07:15:14.789Z,6.57
2022-11-21T07:17:45.167Z,6.57
2022-11-21T07:20:15.829Z,6.88
2022-11-21T07:22:46.121Z,14.07
2022-11-21T07:25:16.449Z,6.93
2022-11-21T07:27:46.555Z,7.65
2022-11-21T07:30:17.136Z,7.85
2022-11-21T07:32:47.359Z,7.03
2022-11-21T07:35:17.661Z,5.75
2022-11-21T07:37:47.991Z,6.88
2022-11-21T07:40:18.333Z,7.57
2022-11-21T07:42:50.076Z,469.25
2022-11-21T07:45:20.934Z,16.13
2022-11-21T07:47:59.291Z,7.53
2022-11-21T07:50:30.547Z,6.68
2022-11-21T07:55:39.211Z,7.18
2022-11-21T07:58:14.007Z,8.50
2022-11-21T08:00:45.047Z,7.18
2022-11-21T08:03:16.369Z,6.55
2022-11-21T08:08:17.895Z,5.80
2022-11-21T08:10:49.299Z,6.45
2022-11-21T08:15:49.357Z,6.50
2022-11-21T08:18:23.793Z,6.18
2022-11-21T08:20:54.102Z,6.60
2022-11-21T08:23:24.476Z,6.97
2022-11-21T08:25:54.676Z,6.22
2022-11-21T08:28:24.804Z,6.25
2022-11-21T08:30:55.017Z,6.55
2022-11-21T08:33:25.447Z,6.57
2022-11-21T08:35:55.800Z,6.85
2022-11-21T08:38:26.192Z,6.20
2022-11-21T08:41:17.788Z,6.38
2022-11-21T08:43:57.742Z,6.20
2022-11-21T08:46:33.501Z,6.60
2022-11-21T08:49:03.878Z,6.50
2022-11-21T08:51:34.238Z,6.63
2022-11-21T08:54:06.236Z,6.13
2022-11-21T08:56:36.845Z,10.20
2022-11-21T08:59:07.152Z,14.77
2022-11-21T09:01:37.252Z,6.30
2022-11-21T09:04:08.092Z,6.60
2022-11-21T09:06:39.153Z,6.00
2022-11-21T09:09:10.056Z,30.40
2022-11-21T09:11:40.355Z,5.50
2022-11-21T09:14:29.305Z,6.20
2022-11-21T09:17:17.994Z,6.50
2022-11-21T09:19:48.291Z,6.85
2022-11-21T09:22:18.733Z,6.63
2022-11-21T09:24:49.258Z,5.68
2022-11-21T09:27:19.616Z,106.90
2022-11-21T09:29:54.115Z,5.30
2022-11-21T09:32:25.045Z,5.88
2022-11-21T09:34:55.415Z,6.90
2022-11-21T09:37:25.856Z,6.47
2022-11-21T09:39:56.139Z,6.97
2022-11-21T09:42:41.998Z,6.82
2022-11-21T09:45:22.046Z,7.07
2022-11-21T09:47:54.799Z,6.43
2022-11-21T09:50:39.108Z,6.40
2022-11-21T09:53:14.471Z,6.47
2022-11-21T09:55:49.066Z,7.13
2022-11-21T09:58:35.069Z,7.32
2022-11-21T10:01:05.677Z,11.05
2022-11-21T10:03:48.200Z,6.40
2022-11-21T10:06:29.180Z,76.60
2022-11-21T10:09:43.715Z,6.60
2022-11-21T10:12:42.499Z,7.45
2022-11-21T10:15:36.780Z,7.90
2022-11-21T10:18:44.388Z,923.05
2022-11-21T10:21:24.688Z,940.85
2022-11-21T10:24:42.967Z,877.00
2022-11-21T10:27:22.920Z,837.22
2022-11-21T10:30:00.487Z,327.08
2022-11-21T10:32:40.062Z,6.80
2022-11-21T10:38:26.299Z,7.53
2022-11-21T10:41:25.834Z,7.07
2022-11-21T10:44:41.229Z,7.20
2022-11-21T10:47:32.406Z,8.43
2022-11-21T10:50:11.525Z,6.90
2022-11-21T10:52:53.449Z,8.23
2022-11-21T10:55:23.799Z,7.18
2022-11-21T10:57:56.559Z,8.93
2022-11-21T11:00:29.231Z,13.55
2022-11-21T11:02:59.696Z,7.70
2022-11-21T11:05:32.540Z,7.45
2022-11-21T11:08:04.555Z,7.10
2022-11-21T11:10:42.439Z,8.20
2022-11-21T11:13:52.140Z,8.45
2022-11-21T11:16:24.515Z,7.40
2022-11-21T11:19:29.843Z,8.13
2022-11-21T11:22:03.194Z,8.13
2022-11-21T11:24:33.548Z,7.30
2022-11-21T11:27:05.624Z,9.73
2022-11-21T11:29:37.875Z,8.45
2022-11-21T11:32:23.715Z,78.38
2022-11-21T11:35:02.436Z,8.48
2022-11-21T11:37:40.126Z,10.40
2022-11-21T11:40:26.060Z,7.90
2022-11-21T11:43:26.382Z,8.25
2022-11-21T11:46:51.729Z,8.10
2022-11-21T11:49:58.134Z,9.02
2022-11-21T11:52:37.100Z,8.93
2022-11-21T11:55:11.975Z,29.90
2022-11-21T11:57:44.089Z,17.13
2022-11-21T12:00:25.756Z,95.97
2022-11-21T12:03:23.946Z,9.70
2022-11-21T12:06:13.587Z,11.10
2022-11-21T12:08:58.746Z,9.75
2022-11-21T12:11:51.739Z,9.07
2022-11-21T12:15:17.570Z,9.40
2022-11-21T12:17:50.403Z,15.10
2022-11-21T12:20:33.202Z,28.67
2022-11-21T12:23:03.705Z,74.43
2022-11-21T12:25:39.450Z,497.70
2022-11-21T12:28:22.295Z,55.97
2022-11-21T12:31:07.499Z,50.00
2022-11-21T12:33:48.352Z,51.90
2022-11-21T12:36:23.152Z,172.25
2022-11-21T12:39:05.611Z,806.30
2022-11-21T12:42:09.506Z,163.63
2022-11-21T12:44:57.456Z,648.05
2022-11-21T12:48:03.621Z,968.00
2022-11-21T12:51:08.635Z,955.55
2022-11-21T12:54:40.897Z,907.80
2022-11-21T12:57:14.278Z,663.25
2022-11-21T12:59:53.513Z,551.47
2022-11-21T13:02:44.576Z,520.03
2022-11-21T13:05:22.298Z,934.28
2022-11-21T13:07:58.114Z,847.80
2022-11-21T13:10:29.933Z,955.65
2022-11-21T13:13:25.146Z,364.35
2022-11-21T13:16:18.169Z,430.85
2022-11-21T13:18:52.243Z,54.55
2022-11-21T13:21:44.173Z,129.70
2022-11-21T13:24:34.306Z,164.60
2022-11-21T13:27:04.615Z,159.07
2022-11-21T13:29:35.084Z,65.03
2022-11-21T13:32:44.084Z,49.27
2022-11-21T13:35:23.423Z,355.23
2022-11-21T13:40:33.882Z,925.53
2022-11-21T13:43:35.205Z,210.75
2022-11-21T13:48:57.555Z,346.60
2022-11-21T13:51:41.295Z,869.90
2022-11-21T13:54:26.872Z,759.42
2022-11-21T13:57:06.275Z,921.72
2022-11-21T13:59:51.962Z,842.20
2022-11-21T14:02:48.035Z,811.92
2022-11-21T14:05:24.542Z,799.05
2022-11-21T14:07:55.100Z,822.05
2022-11-21T14:10:37.397Z,761.80
2022-11-21T14:13:07.857Z,745.35
2022-11-21T14:15:50.572Z,662.47
2022-11-21T14:18:27.271Z,447.25
2022-11-21T14:21:03.017Z,225.80
2022-11-21T14:23:37.110Z,406.30
2022-11-21T14:26:15.117Z,506.17
2022-11-21T14:28:45.731Z,653.10
2022-11-21T14:31:19.603Z,755.97
2022-11-21T14:33:51.561Z,843.08
2022-11-21T14:36:34.140Z,821.22
2022-11-21T14:39:35.899Z,796.85
2022-11-21T14:42:07.722Z,798.55
2022-11-21T14:44:38.048Z,805.78
2022-11-21T14:47:26.317Z,778.80
2022-11-21T14:50:03.886Z,823.45
2022-11-21T14:52:38.037Z,827.33
2022-11-21T14:58:03.849Z,826.03
2022-11-21T15:00:58.757Z,847.28
2022-11-21T15:03:26.220Z,878.58
2022-11-21T15:06:07.444Z,897.90
2022-11-21T15:11:43.798Z,904.75
2022-11-21T15:14:44.844Z,876.63
2022-11-21T15:17:21.270Z,871.08
2022-11-21T15:20:14.756Z,832.47
2022-11-21T15:22:45.348Z,851.08
2022-11-21T15:25:22.947Z,849.37
2022-11-21T15:27:55.709Z,859.35
2022-11-21T15:30:32.274Z,845.20
2022-11-21T15:33:10.204Z,851.08
2022-11-21T15:35:59.710Z,821.72
2022-11-21T15:38:36.514Z,853.10
2022-11-21T15:41:12.791Z,866.67
2022-11-21T15:43:44.519Z,847.25
2022-11-21T15:46:26.975Z,848.60
2022-11-21T15:49:25.106Z,883.35
2022-11-21T15:52:09.913Z,870.08
2022-11-21T15:54:40.905Z,865.97
2022-11-21T15:57:17.305Z,870.77
2022-11-21T15:59:49.687Z,908.22
2022-11-21T16:02:20.456Z,873.72
2022-11-21T16:04:50.820Z,925.47
2022-11-21T16:07:21.309Z,862.30
2022-11-21T16:09:52.382Z,859.23
2022-11-21T16:12:22.877Z,916.08
2022-11-21T16:14:53.415Z,197.93
2022-11-21T16:17:23.839Z,623.10
2022-11-21T16:19:54.246Z,888.63
2022-11-21T16:22:24.662Z,851.60
2022-11-21T16:24:55.376Z,832.53
2022-11-21T16:27:28.521Z,856.73
2022-11-21T16:29:58.811Z,855.38
2022-11-21T16:32:29.368Z,898.13
2022-11-21T16:35:00.755Z,870.63
2022-11-21T16:37:33.688Z,858.85
2022-11-21T16:40:04.173Z,842.70
2022-11-21T16:42:34.620Z,840.23
2022-11-21T16:45:05.046Z,843.67
2022-11-21T16:47:37.962Z,837.23
2022-11-21T16:50:08.891Z,849.30
2022-11-21T16:52:39.483Z,836.17
2022-11-21T16:55:10.166Z,875.72
2022-11-21T16:57:40.740Z,915.90
2022-11-21T17:00:14.297Z,819.17
2022-11-21T17:02:45.066Z,915.63
2022-11-21T17:05:15.651Z,948.93
2022-11-21T17:07:47.316Z,621.47
2022-11-21T17:10:18.663Z,673.85
2022-11-21T17:12:49.165Z,924.15
2022-11-21T17:15:19.676Z,892.47
2022-11-21T17:17:50.293Z,913.90
2022-11-21T17:20:20.512Z,897.15
2022-11-21T17:22:50.961Z,883.50
2022-11-21T17:25:21.471Z,906.03
2022-11-21T17:27:51.935Z,858.10
2022-11-21T17:30:23.722Z,904.60
2022-11-21T17:32:54.417Z,903.22
2022-11-21T17:35:24.694Z,876.27
2022-11-21T17:37:55.084Z,915.85
2022-11-21T17:40:25.504Z,888.33
2022-11-21T17:42:55.883Z,857.83
2022-11-21T17:45:27.577Z,883.15
2022-11-21T17:47:58.050Z,759.38
2022-11-21T17:50:28.389Z,885.72
2022-11-21T17:53:00.039Z,759.77
2022-11-21T17:55:30.502Z,875.45
2022-11-21T17:58:00.792Z,231.77
2022-11-21T18:00:31.417Z,677.65
2022-11-21T18:03:01.871Z,418.97
2022-11-21T18:05:32.142Z,657.78
2022-11-21T18:08:02.484Z,838.95
2022-11-21T18:10:47.687Z,479.65
2022-11-21T18:13:18.059Z,853.10
2022-11-21T18:15:48.492Z,851.83
2022-11-21T18:18:18.760Z,141.07
2022-11-21T18:20:49.557Z,700.72
2022-11-21T18:23:20.133Z,862.97
2022-11-21T18:25:50.415Z,171.03
2022-11-21T18:28:20.795Z,261.30
2022-11-21T18:30:51.032Z,181.38
2022-11-21T18:33:21.280Z,664.30
2022-11-21T18:35:51.575Z,110.25
2022-11-21T18:38:46.885Z,80.88
2022-11-21T18:41:18.368Z,835.38
2022-11-21T18:43:55.409Z,595.65
2022-11-21T18:46:29.030Z,701.53
2022-11-21T18:49:04.802Z,720.13
2022-11-21T18:51:36.894Z,789.85
2022-11-21T18:54:09.985Z,798.33
2022-11-21T18:56:41.986Z,857.92
2022-11-21T18:59:12.533Z,879.90
2022-11-21T19:01:42.982Z,843.60
2022-11-21T19:04:13.207Z,839.58
2022-11-21T19:06:43.620Z,850.50
2022-11-21T19:09:13.970Z,817.97
2022-11-21T19:11:44.411Z,741.03
2022-11-21T19:14:14.850Z,829.65
2022-11-21T19:16:45.062Z,834.72
2022-11-21T19:19:34.538Z,854.45
2022-11-21T19:22:07.747Z,853.97
2022-11-21T19:24:38.044Z,857.20
2022-11-21T19:27:09.211Z,861.13
2022-11-21T19:29:39.587Z,858.22
2022-11-21T19:32:09.612Z,876.03
2022-11-21T19:34:40.223Z,855.60
2022-11-21T19:37:10.560Z,831.03
2022-11-21T19:39:40.887Z,832.33
2022-11-21T19:42:11.184Z,508.55
2022-11-21T19:44:41.479Z,315.27
2022-11-21T19:47:12.942Z,638.50
2022-11-21T19:49:43.222Z,735.63
2022-11-21T19:52:13.468Z,827.85
2022-11-21T19:54:44.595Z,790.05
2022-11-21T19:57:15.262Z,832.75
2022-11-21T19:59:47.019Z,832.20
2022-11-21T20:02:23.487Z,809.15
2022-11-21T20:04:53.875Z,862.33
2022-11-21T20:07:24.629Z,828.50
2022-11-21T20:09:55.043Z,333.20
2022-11-21T20:12:25.350Z,850.92
2022-11-21T20:14:55.888Z,841.05
2022-11-21T20:17:26.288Z,671.83
2022-11-21T20:19:56.579Z,879.47
2022-11-21T20:22:26.947Z,845.72
2022-11-21T20:24:57.304Z,862.53
2022-11-21T20:27:27.963Z,815.00
2022-11-21T20:29:58.262Z,840.22
2022-11-21T20:32:30.539Z,829.60
2022-11-21T20:35:00.932Z,866.58
2022-11-21T20:37:31.910Z,885.22
2022-11-21T20:40:02.108Z,891.92
2022-11-21T20:42:32.414Z,680.45
2022-11-21T20:47:52.875Z,841.42
2022-11-21T20:51:03.449Z,818.45
2022-11-21T20:56:12.437Z,852.08
2022-11-21T20:58:44.953Z,850.28
2022-11-21T21:01:17.659Z,832.10
2022-11-21T21:03:48.257Z,761.33
2022-11-21T21:06:19.264Z,354.25
2022-11-21T21:08:53.815Z,407.67
2022-11-21T21:11:50.375Z,819.00
2022-11-21T21:14:16.776Z,609.55
2022-11-21T21:16:47.262Z,662.23
2022-11-21T21:19:17.958Z,825.43
2022-11-21T21:21:48.352Z,830.43
2022-11-21T21:24:19.546Z,520.33
2022-11-21T21:26:51.391Z,795.42
2022-11-21T21:29:23.743Z,808.97
2022-11-21T21:31:54.110Z,784.58
2022-11-21T21:34:25.544Z,828.22
2022-11-21T21:39:25.450Z,856.40
2022-11-21T21:41:56.052Z,786.38
2022-11-21T21:44:32.780Z,880.93
2022-11-21T21:47:04.333Z,859.90
2022-11-21T21:49:34.671Z,816.38
2022-11-21T21:52:05.417Z,808.40
2022-11-21T21:54:36.192Z,812.67
2022-11-21T21:57:06.625Z,830.78
2022-11-21T21:59:36.755Z,836.22
2022-11-21T22:02:07.166Z,787.00
2022-11-21T22:04:37.497Z,834.13
2022-11-21T22:07:07.909Z,841.38
2022-11-21T22:09:38.441Z,813.17
2022-11-21T22:12:08.771Z,808.20
2022-11-21T22:14:38.953Z,816.25
2022-11-21T22:17:09.077Z,754.60
2022-11-21T22:19:39.242Z,784.95
2022-11-21T22:22:09.294Z,721.45
2022-11-21T22:24:41.434Z,820.67
2022-11-21T22:27:11.821Z,820.83
2022-11-21T22:29:41.899Z,800.75
2022-11-21T22:34:47.348Z,25.65
2022-11-21T22:37:17.604Z,27.95
2022-11-21T22:39:48.079Z,29.37
2022-11-21T22:42:18.420Z,29.30
2022-11-21T22:44:49.114Z,26.73
2022-11-21T22:47:19.696Z,27.10
2022-11-21T22:49:50.054Z,26.37
2022-11-21T22:52:20.532Z,28.58
2022-11-21T22:54:50.803Z,29.40
2022-11-21T22:57:21.430Z,32.58
2022-11-21T22:59:52.015Z,32.20
2022-11-21T23:02:34.261Z,32.43
2022-11-21T23:05:06.345Z,31.83
2022-11-21T23:07:37.980Z,32.80
2022-11-21T23:10:09.010Z,30.20
2022-11-21T23:12:39.610Z,30.85
2022-11-21T23:15:10.489Z,31.02
2022-11-21T23:17:40.744Z,32.33
2022-11-21T23:20:11.781Z,32.40
2022-11-21T23:22:42.005Z,34.33
2022-11-21T23:25:12.507Z,32.78
2022-11-21T23:27:42.571Z,32.53
2022-11-21T23:30:13.701Z,34.88
2022-11-21T23:35:14.079Z,34.05
2022-11-21T23:37:44.221Z,34.10
2022-11-21T23:40:15.018Z,34.85
2022-11-21T23:42:46.497Z,35.30
2022-11-21T23:45:17.075Z,32.63
2022-11-21T23:47:47.409Z,35.57
2022-11-21T23:50:18.963Z,35.40
2022-11-21T23:52:50.361Z,36.50
2022-11-21T23:57:52.545Z,35.60
